createdAt,value
2018-01-24T00:02:23.814Z,5.30
2018-01-24T00:04:51.694Z,5.30
2018-01-24T00:07:23.248Z,5.20
2018-01-24T00:09:51.152Z,5.30
2018-01-24T00:12:18.883Z,5.20
2018-01-24T00:14:46.629Z,5.20
2018-01-24T00:17:14.408Z,5.20
2018-01-24T00:19:42.168Z,5.20
2018-01-24T00:22:09.948Z,5.20
2018-01-24T00:24:37.521Z,5.20
2018-01-24T00:27:09.347Z,5.30
2018-01-24T00:29:37.119Z,5.30
2018-01-24T00:32:04.836Z,5.30
2018-01-24T00:34:33.256Z,5.30
2018-01-24T00:37:00.819Z,5.30
2018-01-24T00:39:28.587Z,5.30
2018-01-24T00:41:56.440Z,5.20
2018-01-24T00:44:24.228Z,5.20
2018-01-24T00:46:53.422Z,5.20
2018-01-24T00:49:21.187Z,5.20
2018-01-24T00:51:48.949Z,5.20
2018-01-24T00:54:16.709Z,5.20
2018-01-24T00:56:44.481Z,5.30
2018-01-24T00:59:12.235Z,5.30
2018-01-24T01:01:40.008Z,5.40
2018-01-24T01:04:08.477Z,5.40
2018-01-24T01:06:36.331Z,5.40
2018-01-24T01:09:06.284Z,5.40
2018-01-24T01:11:34.949Z,5.50
2018-01-24T01:14:03.632Z,5.50
2018-01-24T01:16:31.497Z,5.50
2018-01-24T01:18:59.040Z,5.60
2018-01-24T01:21:26.832Z,5.60
2018-01-24T01:23:54.597Z,5.60
2018-01-24T01:26:23.461Z,5.60
2018-01-24T01:28:57.923Z,5.60
2018-01-24T01:31:27.760Z,5.60
2018-01-24T01:33:55.581Z,5.60
2018-01-24T01:36:23.346Z,5.50
2018-01-24T01:38:55.027Z,5.40
2018-01-24T01:41:23.485Z,5.50
2018-01-24T01:43:52.050Z,5.40
2018-01-24T01:46:19.833Z,5.40
2018-01-24T01:48:52.002Z,5.40
2018-01-24T01:51:24.629Z,5.40
2018-01-24T01:53:52.449Z,5.40
2018-01-24T01:56:20.214Z,5.40
2018-01-24T01:58:48.613Z,5.50
2018-01-24T02:01:17.170Z,5.60
2018-01-24T02:03:44.843Z,5.60
2018-01-24T02:06:12.601Z,5.70
2018-01-24T02:08:40.133Z,5.80
2018-01-24T02:11:07.676Z,5.90
2018-01-24T02:13:35.256Z,5.90
2018-01-24T02:16:02.817Z,6.00
2018-01-24T02:18:30.336Z,6.00
2018-01-24T02:20:57.857Z,6.10
2018-01-24T02:23:25.396Z,6.10
2018-01-24T02:25:53.684Z,6.20
2018-01-24T02:28:21.228Z,6.20
2018-01-24T02:30:49.530Z,6.20
2018-01-24T02:33:17.080Z,6.20
2018-01-24T02:35:44.608Z,6.20
2018-01-24T02:38:24.017Z,6.30
2018-01-24T02:40:51.547Z,6.30
2018-01-24T02:43:19.110Z,6.30
2018-01-24T02:45:46.644Z,6.30
2018-01-24T02:48:14.179Z,6.30
2018-01-24T02:50:41.740Z,6.30
2018-01-24T02:53:09.276Z,6.30
2018-01-24T02:55:36.820Z,6.30
2018-01-24T02:58:04.343Z,6.40
2018-01-24T03:00:32.682Z,6.50
2018-01-24T03:03:00.207Z,6.50
2018-01-24T03:05:27.749Z,6.50
2018-01-24T03:07:56.103Z,6.60
2018-01-24T03:10:23.638Z,6.60
2018-01-24T03:12:51.960Z,6.60
2018-01-24T03:15:19.471Z,6.60
2018-01-24T03:17:47.780Z,6.60
2018-01-24T03:20:15.308Z,6.60
2018-01-24T03:22:43.618Z,6.60
2018-01-24T03:25:11.172Z,6.60
2018-01-24T03:27:38.722Z,6.60
2018-01-24T03:30:07.012Z,6.70
2018-01-24T03:32:34.556Z,6.70
2018-01-24T03:35:02.842Z,6.80
2018-01-24T03:37:30.395Z,6.70
2018-01-24T03:39:58.681Z,6.70
2018-01-24T03:42:26.240Z,6.70
2018-01-24T03:44:53.778Z,6.60
2018-01-24T03:47:22.108Z,6.60
2018-01-24T03:49:49.650Z,6.50
2018-01-24T03:52:17.186Z,6.50
2018-01-24T03:54:45.491Z,6.50
2018-01-24T03:57:13.020Z,6.50
2018-01-24T03:59:41.338Z,6.40
2018-01-24T04:02:08.869Z,6.40
2018-01-24T04:04:36.415Z,6.50
2018-01-24T04:07:04.712Z,6.50
2018-01-24T04:09:32.247Z,6.50
2018-01-24T04:11:59.787Z,6.50
2018-01-24T04:14:27.324Z,6.40
2018-01-24T04:16:54.859Z,6.40
2018-01-24T04:19:22.408Z,6.40
2018-01-24T04:21:49.953Z,6.30
2018-01-24T04:24:17.547Z,6.30
2018-01-24T04:26:45.103Z,6.30
2018-01-24T04:29:12.631Z,6.20
2018-01-24T04:31:40.181Z,6.10
2018-01-24T04:34:07.702Z,6.10
2018-01-24T04:36:35.253Z,6.10
2018-01-24T04:39:02.785Z,6.10
2018-01-24T04:41:30.656Z,6.10
2018-01-24T04:43:58.180Z,6.00
2018-01-24T04:46:25.729Z,6.00
2018-01-24T04:48:53.268Z,6.00
2018-01-24T04:51:20.827Z,6.00
2018-01-24T04:53:48.354Z,6.00
2018-01-24T04:56:16.656Z,6.10
2018-01-24T04:58:44.977Z,6.00
2018-01-24T05:01:12.511Z,6.00
2018-01-24T05:03:40.052Z,6.00
2018-01-24T05:06:08.350Z,6.10
2018-01-24T05:08:35.895Z,6.00
2018-01-24T05:11:04.190Z,6.00
2018-01-24T05:13:31.740Z,6.00
2018-01-24T05:15:59.265Z,6.00
2018-01-24T05:18:26.785Z,6.00
2018-01-24T05:20:54.325Z,6.00
2018-01-24T05:23:21.849Z,6.00
2018-01-24T05:25:51.353Z,5.90
2018-01-24T05:28:18.890Z,5.90
2018-01-24T05:30:46.432Z,5.90
2018-01-24T05:33:13.959Z,5.90
2018-01-24T05:35:41.542Z,5.90
2018-01-24T05:38:09.072Z,5.90
2018-01-24T05:40:37.778Z,6.00
2018-01-24T05:43:05.342Z,6.00
2018-01-24T05:45:32.888Z,5.90
2018-01-24T05:48:00.422Z,6.00
2018-01-24T05:50:28.719Z,6.00
2018-01-24T05:52:56.281Z,6.00
2018-01-24T05:55:23.836Z,6.00
2018-01-24T05:57:51.391Z,5.90
2018-01-24T06:00:19.696Z,5.90
2018-01-24T06:02:47.232Z,5.90
2018-01-24T06:05:15.540Z,5.90
2018-01-24T06:07:43.052Z,5.80
2018-01-24T06:10:11.366Z,5.70
2018-01-24T06:12:38.916Z,5.70
2018-01-24T06:15:06.461Z,5.70
2018-01-24T06:17:34.767Z,5.60
2018-01-24T06:20:02.308Z,5.60
2018-01-24T06:22:29.839Z,5.60
2018-01-24T06:24:58.160Z,5.70
2018-01-24T06:27:26.248Z,5.70
2018-01-24T06:29:54.606Z,5.60
2018-01-24T06:32:22.123Z,5.50
2018-01-24T06:34:49.679Z,5.50
2018-01-24T06:37:17.233Z,5.60
2018-01-24T06:39:44.772Z,5.60
2018-01-24T06:42:12.325Z,5.60
2018-01-24T06:44:40.648Z,5.60
2018-01-24T06:47:08.964Z,5.60
2018-01-24T06:49:36.627Z,5.60
2018-01-24T06:52:04.171Z,5.60
2018-01-24T06:54:31.724Z,5.50
2018-01-24T06:56:59.272Z,5.50
2018-01-24T06:59:27.563Z,5.60
2018-01-24T07:01:55.101Z,5.50
2018-01-24T07:04:23.399Z,5.60
2018-01-24T07:06:51.723Z,5.60
2018-01-24T07:09:19.248Z,5.60
2018-01-24T07:11:46.795Z,5.60
2018-01-24T07:14:26.273Z,5.50
2018-01-24T07:16:53.815Z,5.50
2018-01-24T07:19:21.353Z,5.50
2018-01-24T07:21:49.677Z,5.50
2018-01-24T07:24:17.208Z,5.50
2018-01-24T07:26:44.752Z,5.50
2018-01-24T07:29:12.276Z,5.50
2018-01-24T07:31:39.845Z,5.50
2018-01-24T07:34:07.379Z,5.60
2018-01-24T07:36:34.910Z,5.70
2018-01-24T07:39:02.459Z,5.70
2018-01-24T07:41:29.984Z,5.70
2018-01-24T07:43:57.538Z,5.70
2018-01-24T07:46:25.086Z,5.80
2018-01-24T07:48:52.642Z,5.80
2018-01-24T07:51:20.168Z,5.80
2018-01-24T07:53:48.492Z,6.00
2018-01-24T07:56:16.022Z,5.90
2018-01-24T07:58:44.337Z,6.20
2018-01-24T08:01:11.869Z,6.20
2018-01-24T08:03:39.420Z,6.40
2018-01-24T08:06:07.705Z,7.40
2018-01-24T08:08:36.221Z,7.40
2018-01-24T08:11:03.758Z,8.20
2018-01-24T08:13:32.265Z,9.30
2018-01-24T08:15:59.830Z,9.60
2018-01-24T08:18:27.412Z,10.00
2018-01-24T08:20:55.736Z,10.50
2018-01-24T08:23:23.269Z,10.50
2018-01-24T08:25:50.853Z,10.50
2018-01-24T08:28:18.424Z,10.60
2018-01-24T08:30:45.959Z,10.80
2018-01-24T08:33:13.524Z,11.30
2018-01-24T08:35:41.078Z,12.20
2018-01-24T08:38:08.645Z,12.50
2018-01-24T08:40:37.020Z,12.60
2018-01-24T08:43:04.600Z,12.50
2018-01-24T08:45:33.029Z,13.10
2018-01-24T08:48:01.357Z,14.00
2018-01-24T08:50:28.892Z,13.90
2018-01-24T08:52:56.462Z,13.50
2018-01-24T08:55:23.991Z,12.40
2018-01-24T08:57:51.542Z,11.90
2018-01-24T09:00:19.103Z,12.20
2018-01-24T09:02:47.358Z,12.30
2018-01-24T09:05:15.696Z,12.40
2018-01-24T09:07:43.229Z,12.30
2018-01-24T09:10:10.773Z,12.10
2018-01-24T09:12:39.090Z,13.20
2018-01-24T09:15:06.632Z,13.20
2018-01-24T09:17:34.307Z,13.40
2018-01-24T09:20:01.835Z,13.40
2018-01-24T09:22:29.383Z,12.60
2018-01-24T09:24:57.703Z,13.80
2018-01-24T09:27:25.326Z,13.80
2018-01-24T09:29:53.456Z,11.70
2018-01-24T09:32:21.038Z,11.50
2018-01-24T09:34:48.588Z,10.50
2018-01-24T09:37:16.155Z,9.80
2018-01-24T09:39:44.664Z,9.90
2018-01-24T09:42:12.960Z,10.60
2018-01-24T09:44:40.492Z,10.50
2018-01-24T09:47:08.808Z,9.90
2018-01-24T09:49:36.344Z,9.80
2018-01-24T09:52:04.672Z,10.10
2018-01-24T09:54:32.212Z,10.10
2018-01-24T09:56:59.762Z,10.00
2018-01-24T09:59:27.305Z,10.70
2018-01-24T10:01:54.852Z,11.00
2018-01-24T10:04:23.157Z,11.60
2018-01-24T10:06:50.969Z,11.50
2018-01-24T10:09:18.504Z,12.20
2018-01-24T10:11:46.037Z,12.40
2018-01-24T10:14:13.594Z,12.50
2018-01-24T10:16:41.164Z,12.80
2018-01-24T10:19:08.725Z,12.00
2018-01-24T10:21:36.334Z,12.50
2018-01-24T10:24:03.880Z,12.10
2018-01-24T10:26:31.436Z,12.10
2018-01-24T10:28:59.745Z,13.40
2018-01-24T10:31:27.272Z,13.60
2018-01-24T10:33:54.804Z,14.20
2018-01-24T10:36:23.120Z,15.90
2018-01-24T10:38:50.648Z,15.90
2018-01-24T10:41:18.979Z,16.90
2018-01-24T10:43:46.521Z,16.90
2018-01-24T10:46:14.052Z,16.80
2018-01-24T10:48:42.378Z,15.60
2018-01-24T10:51:09.906Z,15.60
2018-01-24T10:53:37.440Z,16.50
2018-01-24T10:56:06.030Z,12.90
2018-01-24T10:58:34.317Z,12.80
2018-01-24T11:01:01.868Z,12.70
2018-01-24T11:03:29.401Z,12.30
2018-01-24T11:05:56.962Z,12.90
2018-01-24T11:08:25.290Z,14.10
2018-01-24T11:10:52.848Z,14.00
2018-01-24T11:13:20.383Z,14.10
2018-01-24T11:15:47.951Z,14.40
2018-01-24T11:18:15.525Z,14.40
2018-01-24T11:20:43.064Z,14.40
2018-01-24T11:23:10.616Z,14.40
2018-01-24T11:25:38.147Z,14.10
2018-01-24T11:28:06.493Z,15.40
2018-01-24T11:30:34.028Z,15.40
2018-01-24T11:33:01.623Z,16.50
2018-01-24T11:35:29.173Z,14.60
2018-01-24T11:37:56.734Z,14.70
2018-01-24T11:40:24.290Z,14.20
2018-01-24T11:42:52.576Z,13.40
2018-01-24T11:45:20.140Z,13.30
2018-01-24T11:47:47.678Z,13.50
2018-01-24T11:50:15.997Z,13.80
2018-01-24T11:52:43.553Z,13.70
2018-01-24T11:55:11.096Z,14.10
2018-01-24T11:57:38.634Z,14.20
2018-01-24T12:00:06.970Z,14.60
2018-01-24T12:02:34.512Z,14.60
2018-01-24T12:05:02.080Z,15.10
2018-01-24T12:07:29.603Z,16.30
2018-01-24T12:09:57.165Z,15.70
2018-01-24T12:12:24.729Z,16.60
2018-01-24T12:14:52.280Z,16.00
2018-01-24T12:17:20.587Z,16.20
2018-01-24T12:19:48.146Z,16.20
2018-01-24T12:22:15.702Z,16.40
2018-01-24T12:24:43.226Z,16.30
2018-01-24T12:27:11.540Z,16.70
2018-01-24T12:29:39.069Z,16.60
2018-01-24T12:32:07.402Z,16.50
2018-01-24T12:34:34.939Z,16.50
2018-01-24T12:37:02.480Z,16.40
2018-01-24T12:39:30.002Z,16.80
2018-01-24T12:41:57.588Z,16.60
2018-01-24T12:44:25.121Z,16.30
2018-01-24T12:46:52.677Z,16.60
2018-01-24T12:49:20.363Z,17.30
2018-01-24T12:51:47.917Z,17.10
2018-01-24T12:54:15.525Z,16.40
2018-01-24T12:56:43.850Z,15.50
2018-01-24T12:59:11.392Z,15.40
2018-01-24T13:01:38.920Z,15.10
2018-01-24T13:04:06.464Z,15.90
2018-01-24T13:06:34.015Z,16.30
2018-01-24T13:09:01.560Z,16.80
2018-01-24T13:11:29.870Z,17.30
2018-01-24T13:13:57.448Z,17.30
2018-01-24T13:16:25.011Z,16.60
2018-01-24T13:18:52.550Z,15.50
2018-01-24T13:21:20.139Z,15.40
2018-01-24T13:23:47.673Z,15.80
2018-01-24T13:26:15.232Z,16.40
2018-01-24T13:28:43.971Z,15.80
2018-01-24T13:31:11.541Z,15.80
2018-01-24T13:33:39.104Z,15.40
2018-01-24T13:36:06.667Z,14.60
2018-01-24T13:38:34.232Z,14.60
2018-01-24T13:41:01.765Z,14.60
2018-01-24T13:43:29.308Z,14.60
2018-01-24T13:45:56.885Z,14.40
2018-01-24T13:48:24.425Z,14.50
2018-01-24T13:50:51.988Z,14.50
2018-01-24T13:53:20.526Z,14.40
2018-01-24T13:55:48.075Z,14.40
2018-01-24T13:58:15.620Z,13.70
2018-01-24T14:00:43.183Z,13.90
2018-01-24T14:03:10.733Z,13.60
2018-01-24T14:05:38.306Z,13.70
2018-01-24T14:08:05.861Z,13.90
2018-01-24T14:10:33.456Z,13.80
2018-01-24T14:13:01.808Z,13.40
2018-01-24T14:15:30.174Z,13.30
2018-01-24T14:17:57.736Z,13.50
2018-01-24T14:20:25.312Z,13.60
2018-01-24T14:22:52.884Z,13.50
2018-01-24T14:25:20.433Z,13.30
2018-01-24T14:27:47.970Z,13.40
2018-01-24T14:30:15.538Z,13.40
2018-01-24T14:32:43.069Z,13.30
2018-01-24T14:35:10.648Z,13.20
2018-01-24T14:37:40.006Z,12.90
2018-01-24T14:40:07.564Z,12.80
2018-01-24T14:42:35.117Z,12.70
2018-01-24T14:45:02.671Z,12.40
2018-01-24T14:47:30.216Z,12.20
2018-01-24T14:49:57.784Z,12.10
2018-01-24T14:52:25.332Z,12.10
2018-01-24T14:54:52.897Z,12.00
2018-01-24T14:57:20.461Z,11.80
2018-01-24T14:59:47.999Z,11.90
2018-01-24T15:02:15.552Z,12.00
2018-01-24T15:04:43.857Z,11.90
2018-01-24T15:07:11.708Z,11.90
2018-01-24T15:09:39.941Z,12.00
2018-01-24T15:12:07.518Z,12.00
2018-01-24T15:14:35.836Z,11.90
2018-01-24T15:17:03.380Z,11.90
2018-01-24T15:19:30.959Z,11.80
2018-01-24T15:21:58.508Z,11.60
2018-01-24T15:24:26.055Z,11.60
2018-01-24T15:26:53.609Z,11.50
2018-01-24T15:29:21.921Z,11.50
2018-01-24T15:31:49.456Z,11.50
2018-01-24T15:34:17.011Z,11.40
2018-01-24T15:36:44.560Z,11.20
2018-01-24T15:39:12.896Z,11.00
2018-01-24T15:41:40.431Z,11.00
2018-01-24T15:44:08.004Z,10.90
2018-01-24T15:46:35.553Z,10.90
2018-01-24T15:49:03.104Z,10.70
2018-01-24T15:51:30.646Z,10.60
2018-01-24T15:53:59.054Z,10.50
2018-01-24T15:56:26.634Z,10.50
2018-01-24T15:58:54.189Z,10.50
2018-01-24T16:01:21.758Z,10.40
2018-01-24T16:03:49.313Z,10.30
2018-01-24T16:06:16.852Z,10.30
2018-01-24T16:08:44.411Z,10.30
2018-01-24T16:11:11.989Z,10.20
2018-01-24T16:13:39.537Z,10.20
2018-01-24T16:16:07.135Z,10.10
2018-01-24T16:18:34.709Z,10.10
2018-01-24T16:21:02.258Z,10.10
2018-01-24T16:23:29.836Z,10.00
2018-01-24T16:25:58.157Z,10.00
2018-01-24T16:28:25.742Z,9.90
2018-01-24T16:30:53.260Z,9.90
2018-01-24T16:33:20.833Z,9.90
2018-01-24T16:35:48.363Z,9.90
2018-01-24T16:38:16.661Z,9.80
2018-01-24T16:40:44.216Z,9.80
2018-01-24T16:43:12.288Z,9.80
2018-01-24T16:45:39.838Z,9.80
2018-01-24T16:48:07.394Z,9.80
2018-01-24T16:50:35.003Z,9.80
2018-01-24T16:53:02.531Z,9.80
2018-01-24T16:55:30.070Z,9.70
2018-01-24T16:57:58.418Z,9.70
2018-01-24T17:00:26.005Z,9.70
2018-01-24T17:02:54.327Z,9.60
2018-01-24T17:05:21.870Z,9.60
2018-01-24T17:07:49.415Z,9.80
2018-01-24T17:10:16.943Z,9.70
2018-01-24T17:12:44.487Z,9.70
2018-01-24T17:15:12.784Z,9.70
2018-01-24T17:17:40.352Z,9.70
2018-01-24T17:20:07.884Z,9.70
2018-01-24T17:22:36.180Z,9.60
2018-01-24T17:25:04.968Z,9.60
2018-01-24T17:27:32.492Z,9.60
2018-01-24T17:30:00.078Z,9.50
2018-01-24T17:32:27.600Z,9.50
2018-01-24T17:34:55.164Z,9.50
2018-01-24T17:37:22.701Z,9.40
2018-01-24T17:39:50.257Z,9.40
2018-01-24T17:42:17.787Z,9.30
2018-01-24T17:44:45.353Z,9.30
2018-01-24T17:47:12.876Z,9.30
2018-01-24T17:49:41.172Z,9.20
2018-01-24T17:52:09.751Z,9.20
2018-01-24T17:54:38.079Z,9.10
2018-01-24T17:57:05.631Z,9.10
2018-01-24T17:59:33.175Z,9.10
2018-01-24T18:02:00.701Z,9.10
2018-01-24T18:04:29.033Z,9.00
2018-01-24T18:06:57.540Z,9.00
2018-01-24T18:09:26.594Z,9.00
2018-01-24T18:11:54.154Z,9.00
2018-01-24T18:14:21.679Z,9.00
2018-01-24T18:16:50.095Z,9.00
2018-01-24T18:19:18.448Z,9.00
2018-01-24T18:21:46.005Z,9.00
2018-01-24T18:24:14.343Z,8.90
2018-01-24T18:26:41.865Z,8.90
2018-01-24T18:29:09.421Z,8.90
2018-01-24T18:31:36.969Z,8.90
2018-01-24T18:34:04.505Z,8.80
2018-01-24T18:36:34.260Z,8.70
2018-01-24T18:39:01.781Z,8.70
2018-01-24T18:41:29.330Z,8.70
2018-01-24T18:43:57.617Z,8.70
2018-01-24T18:46:26.773Z,8.60
2018-01-24T18:48:54.300Z,8.50
2018-01-24T18:51:21.861Z,8.50
2018-01-24T18:53:49.400Z,8.50
2018-01-24T18:56:16.939Z,8.40
2018-01-24T18:58:45.270Z,8.40
2018-01-24T19:01:12.803Z,8.40
2018-01-24T19:03:40.353Z,8.30
2018-01-24T19:06:07.883Z,8.30
2018-01-24T19:08:35.452Z,8.30
2018-01-24T19:11:03.817Z,8.20
2018-01-24T19:13:31.336Z,8.20
2018-01-24T19:15:58.891Z,8.20
2018-01-24T19:18:26.452Z,8.20
2018-01-24T19:20:53.982Z,8.20
2018-01-24T19:23:21.548Z,8.20
2018-01-24T19:25:49.065Z,8.10
2018-01-24T19:28:16.609Z,8.10
2018-01-24T19:30:44.918Z,8.10
2018-01-24T19:33:12.456Z,8.10
2018-01-24T19:35:40.024Z,8.10
2018-01-24T19:38:07.579Z,8.10
2018-01-24T19:40:35.139Z,8.10
2018-01-24T19:43:02.708Z,8.00
2018-01-24T19:45:30.254Z,8.10
2018-01-24T19:47:57.820Z,8.10
2018-01-24T19:50:25.349Z,8.10
2018-01-24T19:52:52.908Z,8.10
2018-01-24T19:55:20.437Z,8.00
2018-01-24T19:57:48.032Z,8.00
2018-01-24T20:00:15.581Z,8.00
2018-01-24T20:02:43.124Z,8.00
2018-01-24T20:05:10.680Z,8.00
2018-01-24T20:07:38.212Z,8.00
2018-01-24T20:10:06.542Z,8.10
2018-01-24T20:12:34.069Z,8.10
2018-01-24T20:15:01.627Z,8.10
2018-01-24T20:17:29.487Z,8.10
2018-01-24T20:19:57.089Z,8.00
2018-01-24T20:22:26.153Z,8.00
2018-01-24T20:24:53.748Z,8.00
2018-01-24T20:27:21.274Z,8.00
2018-01-24T20:29:48.814Z,8.00
2018-01-24T20:32:16.365Z,8.00
2018-01-24T20:34:43.916Z,8.00
2018-01-24T20:37:12.232Z,8.00
2018-01-24T20:39:39.812Z,8.00
2018-01-24T20:42:07.444Z,8.00
2018-01-24T20:44:34.989Z,8.10
2018-01-24T20:47:02.549Z,8.10
2018-01-24T20:49:30.085Z,8.10
2018-01-24T20:51:57.617Z,8.10
2018-01-24T20:54:25.961Z,8.10
2018-01-24T20:56:53.584Z,8.10
2018-01-24T20:59:21.148Z,8.10
2018-01-24T21:01:48.700Z,8.10
2018-01-24T21:04:16.244Z,8.10
2018-01-24T21:06:44.542Z,8.20
2018-01-24T21:09:12.108Z,8.10
2018-01-24T21:11:39.653Z,8.10
2018-01-24T21:14:07.979Z,8.20
2018-01-24T21:16:35.533Z,8.20
2018-01-24T21:19:03.074Z,8.10
2018-01-24T21:21:30.616Z,8.20
2018-01-24T21:23:58.173Z,8.20
2018-01-24T21:26:25.738Z,8.10
2018-01-24T21:29:05.089Z,8.20
2018-01-24T21:31:44.544Z,8.10
2018-01-24T21:34:23.967Z,8.20
2018-01-24T21:36:58.100Z,8.30
2018-01-24T21:39:25.694Z,8.20
2018-01-24T21:41:53.220Z,8.30
2018-01-24T21:44:21.524Z,8.30
2018-01-24T21:46:49.063Z,8.30
2018-01-24T21:49:16.585Z,8.30
2018-01-24T21:51:45.625Z,8.30
2018-01-24T21:54:13.152Z,8.40
2018-01-24T21:56:40.698Z,8.40
2018-01-24T21:59:08.248Z,8.30
2018-01-24T22:01:35.792Z,8.40
2018-01-24T22:04:04.097Z,8.40
2018-01-24T22:06:31.632Z,8.30
2018-01-24T22:08:59.956Z,8.30
2018-01-24T22:11:27.499Z,8.30
2018-01-24T22:13:55.044Z,8.30
2018-01-24T22:16:22.616Z,8.30
2018-01-24T22:18:50.204Z,8.20
2018-01-24T22:21:17.777Z,8.20
2018-01-24T22:23:46.099Z,8.20
2018-01-24T22:26:13.633Z,8.10
2018-01-24T22:28:41.188Z,8.20
2018-01-24T22:31:08.715Z,8.20
2018-01-24T22:33:37.053Z,8.10
2018-01-24T22:36:04.579Z,8.10
2018-01-24T22:38:32.104Z,8.10
2018-01-24T22:40:59.657Z,8.10
2018-01-24T22:43:27.184Z,8.10
2018-01-24T22:45:54.780Z,8.00
2018-01-24T22:48:22.308Z,8.00
2018-01-24T22:50:49.884Z,7.90
2018-01-24T22:53:17.419Z,8.00
2018-01-24T22:55:44.971Z,7.90
2018-01-24T22:58:12.524Z,7.90
2018-01-24T23:00:40.091Z,7.90
2018-01-24T23:03:07.611Z,7.90
2018-01-24T23:05:35.924Z,8.00
2018-01-24T23:08:03.455Z,8.00
2018-01-24T23:10:31.792Z,8.00
2018-01-24T23:12:59.352Z,8.00
2018-01-24T23:15:26.875Z,8.00
2018-01-24T23:17:54.416Z,8.00
2018-01-24T23:20:22.718Z,8.00
2018-01-24T23:22:50.272Z,8.00
2018-01-24T23:25:17.804Z,8.00
2018-01-24T23:27:46.121Z,7.90
2018-01-24T23:30:13.648Z,7.90
2018-01-24T23:32:41.223Z,7.80
2018-01-24T23:35:08.744Z,7.90
2018-01-24T23:37:36.292Z,7.80
2018-01-24T23:40:03.826Z,7.80
2018-01-24T23:42:31.394Z,7.90
2018-01-24T23:44:59.740Z,7.80
2018-01-24T23:47:27.280Z,7.80
2018-01-24T23:49:54.804Z,7.80
2018-01-24T23:52:23.101Z,7.80
2018-01-24T23:54:50.635Z,7.80
2018-01-24T23:57:18.192Z,7.70
2018-01-24T23:59:46.499Z,7.60
